Terminal Aerodrome Forecast
Issued by NWS

Home | Current Version | Previous Version | Text Only | Print | Product List | Glossary On
Versions: 1 2 3 4 5 6 7 8 9 10 11 12
000
FTUS43 KJKL 251700
TAFSME
TAF
KSME 251740Z 2518/2618 25007G15KT P6SM SKC
     FM260700 VRB04KT P6SM VCSH OVC070
     FM261100 VRB05KT P6SM SCT020 BKN035=

USA.gov is the U.S. government's official web portal to all federal, state and local government web resources and services.